Flight Track Log - Related Links

Times and Time Zones

All times are in EDT time to prevent confusion due to time zone crossing. See the UAL532 flight status page for this flight to view local times or setup timezone preferences in your user account.

Time Position Orientation Groundspeed Altitude Reporting Facility
EDT Latitude Longitude Course Direction KTS MPH feet Rate Location/Type
Thu 12:11:49 PM 42.0000 -87.8833 75° East 149 171 1,900  Level Chicago TRACON
Thu 12:12:43 PM 42.0000 -87.8167 90° East 213 245 2,900 1,342 Climbing Chicago TRACON
Thu 12:13:05 PM 41.9950 -87.7983 110° East 212 244 3,600 2,714 Climbing Chicago Center
Thu 12:14:00 PM 42.1351 -87.4540 62° Northeast  Level FlightAware Approximate
Thu 12:14:07 PM 41.9903 -87.6783 93° East 268 308 6,700  Level Chicago Center
Thu 12:15:00 PM 42.1887 -87.3009 66° East  Level FlightAware Approximate
Thu 12:15:09 PM 42.0297 -87.5931 58° Northeast 271 312 9,600  Level Chicago Center
Thu 12:16:00 PM 42.2425 -87.1478 63° Northeast  Level FlightAware Approximate
Thu 12:16:11 PM 42.0728 -87.5008 58° Northeast 289 333 11,700  Level Chicago Center
Thu 12:17:00 PM 42.2758 -86.9876 75° East  Level FlightAware Approximate
Thu 12:17:13 PM 42.1242 -87.3942 57° Northeast 339 390 13,400  Level Chicago Center
Thu 12:18:15 PM 42.1772 -87.2792 58° Northeast 360 414 15,500 1,935 Climbing Chicago Center
Thu 12:19:17 PM 42.2333 -87.1589 58° Northeast 379 436 17,400 1,839 Climbing Chicago Center
Thu 12:20:19 PM 42.2806 -86.9944 69° East 419 482 19,300 1,839 Climbing Chicago Center
Thu 12:21:21 PM 42.2881 -86.8333 86° East 436 502 21,200 1,680 Climbing Chicago Center
Thu 12:22:24 PM 42.2942 -86.6756 87° East 439 505 22,800 1,536 Climbing Chicago Center
Thu 12:23:26 PM 42.3008 -86.4842 87° East 447 514 24,400 1,452 Climbing Chicago Center
Thu 12:24:28 PM 42.3075 -86.3139 87° East 456 525 25,800 1,306 Climbing Chicago Center
Thu 12:25:30 PM 42.3133 -86.1375 87° East 468 539 27,100 1,210 Climbing Chicago Center
Thu 12:26:32 PM 42.3133 -85.9594 90° East 477 549 28,300 1,065 Climbing Chicago Center
Thu 12:27:34 PM 42.3111 -85.7794 91° East 483 556 29,300 1,113 Climbing Chicago Center
Thu 12:28:36 PM 42.3083 -85.5594 91° East 490 564 30,600 1,258 Climbing Chicago Center
Thu 12:29:38 PM 42.3064 -85.3750 91° East 493 567 31,900 1,258 Climbing Chicago Center
Thu 12:30:40 PM 42.3025 -85.1917 92° East 493 567 33,200 1,104 Climbing Chicago Center
Thu 12:31:43 PM 42.2994 -85.0114 91° East 486 559 34,200 864 Climbing Chicago Center
Thu 12:32:45 PM 42.2953 -84.8306 92° East 484 557 35,000 387 Climbing Chicago Center
Thu 12:33:47 PM 42.2900 -84.6161 92° East 480 552 35,000  Level Chicago Center
Thu 12:34:49 PM 42.3036 -84.4381 84° East 478 550 35,000  Level Chicago Center
Thu 12:35:31 PM 42.3186 -84.3069 81° East 474 545 35,000  Level Cleveland Center
Thu 12:36:31 PM 42.3347 -84.1225 83° East 479 551 35,000  Level Cleveland Center
Thu 12:37:31 PM 42.3486 -83.9433 84° East 479 551 35,000  Level Cleveland Center
Thu 12:38:31 PM 42.3642 -83.7617 83° East 479 551 35,000 -50 Level Cleveland Center
Thu 12:39:31 PM 42.3722 -83.6186 86° East 479 551 34,900 -50 Descending Cleveland Center
Thu 12:40:31 PM 42.3875 -83.4225 84° East 479 551 34,900 50 Level Cleveland Center
Thu 12:41:31 PM 42.4025 -83.2406 84° East 479 551 35,000 50 Climbing Cleveland Center
Thu 12:42:31 PM 42.4147 -83.0581 85° East 480 552 35,000  Level Cleveland Center
Thu 12:43:31 PM 42.4294 -82.8589 84° East 480 552 35,000  Level Cleveland Center
Thu 12:44:31 PM 42.4433 -82.6767 84° East 480 552 35,000 -50 Level Cleveland Center
Thu 12:45:31 PM 42.4589 -82.4914 83° East 488 562 34,900  Descending Cleveland Center
Thu 12:46:31 PM 42.4703 -82.3058 85° East 494 568 35,000 50 Climbing Cleveland Center
Thu 12:47:31 PM 42.4833 -82.1175 85° East 501 577 35,000  Level Cleveland Center
Thu 12:48:31 PM 42.4981 -81.9292 84° East 494 568 35,000  Level Cleveland Center
Thu 12:49:31 PM 42.5106 -81.7464 85° East 494 568 35,000 -50 Level Cleveland Center
Thu 12:50:31 PM 42.5228 -81.5608 85° East 494 568 34,900 -50 Descending Cleveland Center
Thu 12:51:31 PM 42.5325 -81.3722 86° East 500 575 34,900 50 Level Cleveland Center
Thu 12:52:31 PM 42.5439 -81.2061 85° East 495 570 35,000 50 Climbing Cleveland Center
Thu 12:53:31 PM 42.5553 -81.0144 85° East 501 577 35,000  Level Cleveland Center
Thu 12:54:31 PM 42.5664 -80.8200 85° East 501 577 35,000  Level Cleveland Center
Thu 12:55:31 PM 42.5769 -80.6256 86° East 507 583 35,000  Level Cleveland Center
Thu 12:56:31 PM 42.5872 -80.4367 86° East 507 583 35,000  Level Cleveland Center
Thu 12:57:31 PM 42.5972 -80.2250 86° East 507 583 35,000  Level Cleveland Center
Thu 12:58:31 PM 42.6089 -80.0303 85° East 513 590 35,000  Level Cleveland Center
Thu 12:59:31 PM 42.6203 -79.8356 85° East 518 596 35,000  Level Cleveland Center
Thu 01:00:31 PM 42.6272 -79.6408 87° East 518 596 35,000  Level Cleveland Center
Thu 01:01:31 PM 42.6381 -79.4486 86° East 518 596 35,000  Level Cleveland Center
Thu 01:02:31 PM 42.6444 -79.2594 87° East 518 596 35,000 150 Level Cleveland Center
Thu 01:03:31 PM 42.6525 -79.0617 87° East 518 596 35,300 450 Climbing Cleveland Center
Thu 01:04:31 PM 42.6622 -78.8667 86° East 518 596 35,900 700 Climbing Cleveland Center
Thu 01:05:31 PM 42.6675 -78.6717 88° East 518 596 36,700 550 Climbing Cleveland Center
Thu 01:06:31 PM 42.6744 -78.4736 87° East 518 596 37,000 150 Climbing Cleveland Center
Thu 01:07:31 PM 42.6831 -78.2728 87° East 518 596 37,000  Level Cleveland Center
Thu 01:08:31 PM 42.6894 -78.0778 87° East 518 596 37,000  Level Cleveland Center
Thu 01:09:31 PM 42.6953 -77.8797 88° East 518 596 37,000 -50 Level Cleveland Center
Thu 01:10:31 PM 42.7014 -77.7014 87° East 518 596 36,900  Descending Cleveland Center
Thu 01:11:31 PM 42.7081 -77.4778 88° East 525 604 37,000 50 Climbing Cleveland Center
Thu 01:12:31 PM 42.7100 -77.3194 89° East 531 611 37,000  Level Cleveland Center
Thu 01:14:03 PM 42.7194 -77.0050 88° East 530 610 37,000  Level Boston Center
Thu 01:15:03 PM 42.7231 -76.8072 89° East 525 604 37,000  Level Boston Center
Thu 01:16:03 PM 42.7261 -76.6094 89° East 520 598 37,000  Level Boston Center
Thu 01:17:03 PM 42.7311 -76.4119 88° East 520 598 37,000  Level Boston Center
Thu 01:18:03 PM 42.7336 -76.2169 89° East 515 593 37,000 -50 Level Boston Center
Thu 01:19:03 PM 42.7381 -76.0192 88° East 515 593 36,900 -50 Descending Boston Center
Thu 01:20:03 PM 42.7400 -75.8214 89° East 515 593 36,900  Level Boston Center
Thu 01:21:03 PM 42.7414 -75.6236 89° East 515 593 36,900  Level Boston Center
Thu 01:22:03 PM 42.7425 -75.4256 89° East 515 593 36,900  Level Boston Center
Thu 01:23:15 PM 42.7456 -75.2278 89° East 515 593 36,900 45 Level Boston Center
Thu 01:24:15 PM 42.7469 -74.9903 89° East 515 593 37,000  Climbing Boston Center
Thu 01:25:27 PM 42.7450 -74.7953 91° East 515 593 36,900 -45 Descending Boston Center
Thu 01:26:27 PM 42.7467 -74.5944 89° East 515 593 36,900  Level Boston Center
Thu 01:27:27 PM 42.7467 -74.3656 90° East 515 593 36,900  Level Boston Center
Thu 01:28:27 PM 42.7478 -74.1703 89° East 515 593 36,900  Level Boston Center
Thu 01:29:27 PM 42.7486 -73.9753 90° East 515 593 36,900  Level Boston Center
Thu 01:30:27 PM 42.7425 -73.7831 92° East 515 593 36,900  Level Boston Center
Thu 01:31:27 PM 42.7278 -73.6131 97° East 515 593 36,900 -1,450 Level Boston Center
Thu 01:32:27 PM 42.7069 -73.3981 97° East 515 593 34,000 -2,750 Descending Boston Center
Thu 01:33:27 PM 42.6856 -73.1997 98° East 527 606 31,400 -2,450 Descending Boston Center
Thu 01:34:27 PM 42.6636 -73.0047 99° East 527 606 29,100 -2,700 Descending Boston Center
Thu 01:35:27 PM 42.6394 -72.8069 99° East 527 606 26,000 -2,500 Descending Boston Center
Thu 01:36:27 PM 42.6150 -72.5897 99° East 522 601 24,100 -2,350 Descending Boston Center
Thu 01:37:27 PM 42.5942 -72.4344 100° East 482 555 21,300 -2,600 Descending Boston Center
Thu 01:38:27 PM 42.5733 -72.2736 100° East 475 547 18,900 -2,550 Descending Boston Center
Thu 01:39:27 PM 42.5500 -72.0878 100° East 451 519 16,200 -2,300 Descending Boston Center
Thu 01:40:27 PM 42.5347 -71.9442 98° East 439 505 14,300 -2,150 Descending Boston Center
Thu 01:41:27 PM 42.5214 -71.7725 96° East 421 484 11,900 -1,682 Descending Boston Center
Thu 01:42:39 PM 42.5350 -71.6033 84° East 385 443 10,600 -982 Descending Boston Center
Thu 01:43:17 PM 42.5500 -71.5167 77° East 346 398 10,100 -1,113 Descending KA90
Thu 01:44:16 PM 42.5500 -71.3833 90° East 328 377 8,800 -1,238 Descending KA90
Thu 01:45:23 PM 42.5667 -71.2667 79° East 301 346 7,500 -1,606 Descending KA90
Thu 01:46:23 PM 42.5667 -71.1667 90° East 279 321 5,400 -2,200 Descending KA90
Thu 01:47:23 PM 42.5500 -71.0667 103° East 252 290 3,100 -2,300 Descending KA90

Login

Don't have an account? Register now (free) for customized features, flight alerts, and more!